BOG weather

El Dorado International Airport
Bogota, Cundinamarca Department, Colombia

Public forecast

Using degrees Celsius for public forecast. Weather courtesy of forecast.io.

Current aviation weather report (METAR) for El Dorado International Airport

Retrieved 2019/11/21 04:00 UTC (37 minutes ago):

SKBO 210400Z 31003KT 9999 SCT017 13/11 A3035 NOSIG

Aviation forecast (TAF) for El Dorado International Airport

Retrieved 2019-11-21 00:48 UTC (4 hours ago):

TAF SKBO 202230Z 2100/2124 05004KT 9999 SCT017 SCT080 TEMPO 2100/2102 DZRA BKN015 TEMPO 2108/2112 4000 BR DZ SCT010 BECMG 2114/2116 28012KT SCT023 SCT080 PROB40 TEMPO 2118/2123 5000 TSRA SCT010CB BKN070 TX20/2118Z TN09/2111Z